Time,TemperatureF,DewpointF,PressureIn,WindDirection,WindDirectionDegrees,WindSpeedMPH,WindSpeedGustMPH,Humidity,HourlyPrecipIn,Conditions,Clouds,dailyrainin,SoftwareType,DateUTC
2013-06-19 00:00:00,76.1,70.2,30.04,East,90,8.1,9.2,82,0.00,CLR,,0.00,WeatherDisplay:10.37,2013-06-19 10:00:00,
2013-06-19 00:05:00,76.1,70.2,30.04,ENE,68,5.6,8.1,82,0.00,CLR,,0.00,WeatherDisplay:10.37,2013-06-19 10:05:00,
2013-06-19 00:10:00,76.1,70.2,30.04,ESE,112,6.4,11.5,82,0.00,CLR,,0.00,WeatherDisplay:10.37,2013-06-19 10:10:00,
2013-06-19 00:16:00,76.1,70.2,30.04,ESE,112,3.9,9.2,82,0.00,CLR,,0.00,WeatherDisplay:10.37,2013-06-19 10:16:00,
2013-06-19 00:21:00,76.1,70.2,30.04,NE,45,6.5,13.0,82,0.00,CLR,,0.00,WeatherDisplay:10.37,2013-06-19 10:21:00,
2013-06-19 00:26:00,76.1,70.2,30.03,East,90,6.5,8.3,82,0.00,CLR,,0.00,WeatherDisplay:10.37,2013-06-19 10:26:00,
2013-06-19 00:31:00,76.1,70.2,30.03,West,270,7.2,9.2,82,0.00,CLR,,0.00,WeatherDisplay:10.37,2013-06-19 10:31:00,
2013-06-19 00:36:00,76.1,70.2,30.03,ESE,112,4.8,6.9,82,0.00,CLR,,0.00,WeatherDisplay:10.37,2013-06-19 10:36:00,
2013-06-19 00:41:00,76.1,70.2,30.03,NE,45,3.9,5.8,82,0.00,CLR,,0.00,WeatherDisplay:10.37,2013-06-19 10:41:00,
2013-06-19 00:46:00,76.1,70.2,30.03,SE,135,6.2,8.1,82,0.00,CLR,,0.00,WeatherDisplay:10.37,2013-06-19 10:46:00,
2013-06-19 00:51:00,76.3,70.4,30.03,ESE,112,8.0,11.5,82,0.00,CLR,,0.00,WeatherDisplay:10.37,2013-06-19 10:51:00,
2013-06-19 00:56:00,76.1,70.2,30.03,SE,135,7.2,8.1,82,0.00,CLR,,0.00,WeatherDisplay:10.37,2013-06-19 10:56:00,
2013-06-19 01:01:00,76.1,69.8,30.03,SSE,158,5.0,10.4,81,0.00,CLR,,0.00,WeatherDisplay:10.37,2013-06-19 11:01:00,
2013-06-19 01:06:00,76.1,69.8,30.03,East,90,5.0,6.9,81,0.00,CLR,,0.00,WeatherDisplay:10.37,2013-06-19 11:06:00,
2013-06-19 01:11:00,76.1,69.8,30.03,SSE,158,2.6,3.2,81,0.00,CLR,,0.00,WeatherDisplay:10.37,2013-06-19 11:11:00,
2013-06-19 01:16:00,76.1,69.8,30.03,ESE,112,2.0,2.3,81,0.00,CLR,,0.00,WeatherDisplay:10.37,2013-06-19 11:16:00,
2013-06-19 01:21:00,75.9,69.3,30.03,SE,135,4.1,5.8,80,0.00,CLR,,0.00,WeatherDisplay:10.37,2013-06-19 11:21:00,
2013-06-19 01:27:00,75.9,69.3,30.02,SSE,158,3.1,3.5,80,0.00,CLR,,0.00,WeatherDisplay:10.37,2013-06-19 11:27:00,
2013-06-19 01:32:00,75.9,69.3,30.02,North,360,0.2,1.2,80,0.00,CLR,,0.00,WeatherDisplay:10.37,2013-06-19 11:32:00,
2013-06-19 01:37:00,75.9,69.3,30.02,South,180,3.6,3.6,80,0.00,CLR,,0.00,WeatherDisplay:10.37,2013-06-19 11:37:00,
2013-06-19 01:42:00,75.9,69.3,30.02,ESE,112,4.5,6.3,80,0.00,CLR,,0.00,WeatherDisplay:10.37,2013-06-19 11:42:00,
2013-06-19 01:47:00,76.5,69.9,30.02,ESE,112,3.7,4.2,80,0.00,CLR,,0.00,WeatherDisplay:10.37,2013-06-19 11:47:00,
2013-06-19 01:52:00,76.1,69.1,30.02,ESE,112,3.5,6.3,79,0.00,CLR,,0.00,WeatherDisplay:10.37,2013-06-19 11:52:00,
2013-06-19 01:57:00,76.1,69.1,30.02,ESE,112,2.9,3.7,79,0.00,CLR,,0.00,WeatherDisplay:10.37,2013-06-19 11:57:00,
2013-06-19 02:02:00,76.1,68.7,30.02,ESE,112,8.1,9.2,78,0.00,CLR,,0.00,WeatherDisplay:10.37,2013-06-19 12:02:00,
2013-06-19 02:07:00,76.1,68.7,30.02,SE,135,5.7,6.9,78,0.00,CLR,,0.00,WeatherDisplay:10.37,2013-06-19 12:07:00,
2013-06-19 02:12:00,76.1,68.7,30.02,NE,45,6.1,9.4,78,0.00,CLR,,0.00,WeatherDisplay:10.37,2013-06-19 12:12:00,
2013-06-19 02:17:00,76.1,68.7,30.02,East,90,4.1,5.8,78,0.00,CLR,,0.00,WeatherDisplay:10.37,2013-06-19 12:17:00,
2013-06-19 02:22:00,76.1,68.7,30.02,NE,45,6.0,8.1,78,0.00,CLR,,0.00,WeatherDisplay:10.37,2013-06-19 12:22:00,
2013-06-19 02:27:00,76.1,68.7,30.02,SSE,158,4.1,4.6,78,0.00,CLR,,0.00,WeatherDisplay:10.37,2013-06-19 12:27:00,
2013-06-19 02:32:00,76.1,69.1,30.02,East,90,4.2,4.6,79,0.00,CLR,,0.00,WeatherDisplay:10.37,2013-06-19 12:32:00,
2013-06-19 02:37:00,76.1,69.1,30.02,SSE,158,1.5,4.6,79,0.00,CLR,,0.00,WeatherDisplay:10.37,2013-06-19 12:37:00,
2013-06-19 02:43:00,76.1,69.5,30.02,NNW,338,3.4,5.8,80,0.00,CLR,,0.00,WeatherDisplay:10.37,2013-06-19 12:43:00,
2013-06-19 02:48:00,76.1,69.5,30.01,ESE,112,5.6,5.8,80,0.00,CLR,,0.00,WeatherDisplay:10.37,2013-06-19 12:48:00,
2013-06-19 02:53:00,75.9,69.3,30.01,NNE,22,2.6,5.8,80,0.00,CLR,,0.00,WeatherDisplay:10.37,2013-06-19 12:53:00,
2013-06-19 02:58:00,75.7,69.1,30.01,NE,45,3.2,4.6,80,0.00,CLR,,0.00,WeatherDisplay:10.37,2013-06-19 12:58:00,
2013-06-19 03:03:00,75.7,69.5,30.01,SW,225,0.9,2.3,81,0.00,CLR,,0.00,WeatherDisplay:10.37,2013-06-19 13:03:00,
2013-06-19 03:08:00,75.6,69.4,30.01,East,90,0.0,0.0,81,0.00,CLR,,0.00,WeatherDisplay:10.37,2013-06-19 13:08:00,
2013-06-19 03:13:00,75.4,69.2,30.01,ENE,68,0.0,1.2,81,0.00,CLR,,0.00,WeatherDisplay:10.37,2013-06-19 13:13:00,
2013-06-19 03:18:00,75.2,69.0,30.01,West,270,0.6,2.3,81,0.00,CLR,,0.00,WeatherDisplay:10.37,2013-06-19 13:18:00,
2013-06-19 03:23:00,75.0,69.1,30.01,NNW,338,1.5,2.3,82,0.00,CLR,,0.00,WeatherDisplay:10.37,2013-06-19 13:23:00,
2013-06-19 03:28:00,75.0,69.1,30.01,East,90,2.0,3.5,82,0.00,CLR,,0.00,WeatherDisplay:10.37,2013-06-19 13:28:00,
2013-06-19 03:33:00,74.8,68.9,30.01,East,90,1.8,2.3,82,0.00,CLR,,0.00,WeatherDisplay:10.37,2013-06-19 13:33:00,
2013-06-19 03:38:00,74.7,69.2,30.01,West,270,2.7,2.7,83,0.00,CLR,,0.00,WeatherDisplay:10.37,2013-06-19 13:38:00,
2013-06-19 03:43:00,74.7,69.2,30.01,West,270,2.7,2.7,83,0.00,CLR,,0.00,WeatherDisplay:10.37,2013-06-19 13:43:00,
2013-06-19 03:48:00,74.7,69.2,30.01,West,270,2.7,2.7,83,0.00,CLR,,0.00,WeatherDisplay:10.37,2013-06-19 13:48:00,
2013-06-19 03:54:00,74.7,69.2,30.01,West,270,2.7,2.7,83,0.00,CLR,,0.00,WeatherDisplay:10.37,2013-06-19 13:54:00,
2013-06-19 03:59:00,74.7,69.2,30.01,West,270,2.7,2.7,83,0.00,CLR,,0.00,WeatherDisplay:10.37,2013-06-19 13:59:00,
2013-06-19 04:04:00,74.7,69.2,30.01,West,270,2.7,2.7,83,0.00,CLR,,0.00,WeatherDisplay:10.37,2013-06-19 14:04:00,
2013-06-19 04:09:00,74.7,69.2,30.01,WNW,292,2.7,2.7,83,0.00,CLR,,0.00,WeatherDisplay:10.37,2013-06-19 14:09:00,
2013-06-19 04:14:00,74.3,69.1,30.01,SW,225,1.6,2.3,84,0.00,CLR,,0.00,WeatherDisplay:10.37,2013-06-19 14:14:00,
2013-06-19 04:19:00,74.3,69.1,30.01,West,270,1.2,2.3,84,0.00,CLR,,0.00,WeatherDisplay:10.37,2013-06-19 14:19:00,
2013-06-19 04:24:00,74.3,69.1,30.00,West,270,1.4,2.3,84,0.00,CLR,,0.00,WeatherDisplay:10.37,2013-06-19 14:24:00,
2013-06-19 04:29:00,74.1,69.0,30.00,NW,315,2.4,3.2,84,0.00,CLR,,0.00,WeatherDisplay:10.37,2013-06-19 14:29:00,
2013-06-19 04:34:00,74.1,69.0,30.01,WNW,292,1.3,3.5,84,0.00,CLR,,0.00,WeatherDisplay:10.37,2013-06-19 14:34:00,
2013-06-19 04:39:00,74.1,69.0,30.01,NW,315,2.5,2.5,84,0.00,CLR,,0.00,WeatherDisplay:10.37,2013-06-19 14:39:00,
2013-06-19 04:44:00,74.3,69.1,30.01,West,270,2.5,3.2,84,0.00,CLR,,0.00,WeatherDisplay:10.37,2013-06-19 14:44:00,
2013-06-19 04:49:00,74.3,69.1,30.00,NW,315,1.3,2.3,84,0.00,CLR,,0.00,WeatherDisplay:10.37,2013-06-19 14:49:00,
2013-06-19 04:54:00,74.1,69.0,30.00,West,270,2.1,2.3,84,0.00,CLR,,0.00,WeatherDisplay:10.37,2013-06-19 14:54:00,
2013-06-19 04:59:00,74.1,69.0,30.00,West,270,2.6,2.7,84,0.00,CLR,,0.00,WeatherDisplay:10.37,2013-06-19 14:59:00,
2013-06-19 05:05:00,74.2,69.1,30.00,WNW,297,2.0,3.0,84,0.00,CLR,,0.00,WeatherDisplay:10.37,2013-06-19 15:05:00,
2013-06-19 05:10:00,74.3,69.1,30.00,WNW,295,2.0,4.0,84,0.00,CLR,,0.00,WeatherDisplay:10.37,2013-06-19 15:10:00,
2013-06-19 05:15:00,74.3,69.1,30.01,WNW,301,1.0,3.0,84,0.00,CLR,,0.00,WeatherDisplay:10.37,2013-06-19 15:15:00,
2013-06-19 05:20:00,74.3,69.1,30.01,NNW,336,2.0,3.0,84,0.00,CLR,,0.00,WeatherDisplay:10.37,2013-06-19 15:20:00,
2013-06-19 05:25:00,74.3,69.1,30.01,NW,316,0.0,3.0,84,0.00,CLR,,0.00,WeatherDisplay:10.37,2013-06-19 15:25:00,
2013-06-19 05:30:00,74.3,69.1,30.01,NW,309,0.0,2.0,84,0.00,CLR,,0.00,WeatherDisplay:10.37,2013-06-19 15:30:00,
2013-06-19 05:35:00,74.2,69.0,30.01,NNW,333,1.0,2.0,84,0.00,CLR,,0.00,WeatherDisplay:10.37,2013-06-19 15:35:00,
2013-06-19 05:40:00,74.1,69.0,30.01,North,9,2.0,3.0,84,0.00,CLR,,0.00,WeatherDisplay:10.37,2013-06-19 15:40:00,
2013-06-19 05:45:00,74.1,69.0,30.01,NW,316,1.0,2.0,84,0.00,CLR,,0.00,WeatherDisplay:10.37,2013-06-19 15:45:00,
2013-06-19 05:49:00,74.1,69.0,30.02,WNW,292,0.0,0.0,84,0.00,CLR,,0.00,WeatherDisplay:10.37,2013-06-19 15:49:00,
2013-06-19 05:55:00,73.9,68.8,30.02,WNW,290,0.0,0.0,84,0.00,CLR,,0.00,WeatherDisplay:10.37,2013-06-19 15:55:00,
2013-06-19 06:00:00,73.9,68.8,30.02,West,273,1.0,2.0,84,0.00,CLR,,0.00,WeatherDisplay:10.37,2013-06-19 16:00:00,
2013-06-19 06:05:00,73.9,68.8,30.02,WSW,240,0.0,0.0,84,0.00,CLR,,0.00,WeatherDisplay:10.37,2013-06-19 16:05:00,
2013-06-19 06:10:00,73.8,69.0,30.02,SW,225,0.0,0.0,85,0.00,CLR,,0.00,WeatherDisplay:10.37,2013-06-19 16:10:00,
2013-06-19 06:15:00,73.8,69.0,30.02,SW,235,0.0,0.0,85,0.00,CLR,,0.00,WeatherDisplay:10.37,2013-06-19 16:15:00,
2013-06-19 06:20:00,73.9,69.1,30.02,WSW,248,0.0,0.0,85,0.00,CLR,,0.00,WeatherDisplay:10.37,2013-06-19 16:20:00,
2013-06-19 06:25:00,73.9,69.1,30.02,WSW,248,0.0,1.0,85,0.00,CLR,,0.00,WeatherDisplay:10.37,2013-06-19 16:25:00,
2013-06-19 06:30:00,74.3,69.8,30.02,NNE,22,2.0,2.3,86,0.00,CLR,,0.00,WeatherDisplay:10.37,2013-06-19 16:30:00,
2013-06-19 06:35:00,74.3,69.8,30.02,NNW,345,0.0,2.0,86,0.00,CLR,,0.00,WeatherDisplay:10.37,2013-06-19 16:35:00,
2013-06-19 06:40:00,74.7,70.2,30.02,West,270,0.0,0.0,86,0.00,CLR,,0.00,WeatherDisplay:10.37,2013-06-19 16:40:00,
2013-06-19 06:45:00,74.7,70.2,30.02,West,275,1.0,2.0,86,0.00,CLR,,0.00,WeatherDisplay:10.37,2013-06-19 16:45:00,
2013-06-19 06:50:00,74.8,70.3,30.03,West,274,1.0,2.0,86,0.00,CLR,,0.00,WeatherDisplay:10.37,2013-06-19 16:50:00,
2013-06-19 06:55:00,75.2,70.7,30.03,West,270,0.0,2.0,86,0.00,CLR,,0.00,WeatherDisplay:10.37,2013-06-19 16:55:00,
2013-06-19 07:00:00,75.4,70.9,30.03,West,270,0.0,0.0,86,0.00,CLR,,0.00,WeatherDisplay:10.37,2013-06-19 17:00:00,
2013-06-19 07:05:00,75.6,71.2,30.03,West,281,0.0,2.0,86,0.00,CLR,,0.00,WeatherDisplay:10.37,2013-06-19 17:05:00,
2013-06-19 07:10:00,76.3,71.5,30.03,West,265,2.0,3.0,85,0.00,CLR,,0.00,WeatherDisplay:10.37,2013-06-19 17:10:00,
2013-06-19 07:15:00,76.7,71.9,30.04,South,176,2.0,5.0,85,0.00,CLR,,0.00,WeatherDisplay:10.37,2013-06-19 17:15:00,
2013-06-19 07:20:00,77.5,72.3,30.04,SW,225,2.9,3.5,84,0.00,CLR,,0.00,WeatherDisplay:10.37,2013-06-19 17:20:00,
2013-06-19 07:25:00,77.5,71.9,30.04,WNW,292,1.4,3.5,83,0.01,RA,,0.01,WeatherDisplay:10.37,2013-06-19 17:25:00,
2013-06-19 07:30:00,78.6,71.5,30.04,ESE,112,3.9,4.6,79,0.01,RA,,0.01,WeatherDisplay:10.37,2013-06-19 17:30:00,
2013-06-19 07:35:00,78.8,71.7,30.05,East,90,2.6,5.3,79,0.01,CLR,,0.01,WeatherDisplay:10.37,2013-06-19 17:35:00,
2013-06-19 07:40:00,79.2,71.4,30.05,SE,135,4.0,4.7,77,0.01,CLR,,0.01,WeatherDisplay:10.37,2013-06-19 17:40:00,
2013-06-19 07:45:00,79.5,70.9,30.05,South,180,5.6,6.3,75,0.01,CLR,,0.01,WeatherDisplay:10.37,2013-06-19 17:45:00,
2013-06-19 07:50:00,80.4,71.3,30.04,SE,135,3.6,4.6,74,0.01,CLR,,0.01,WeatherDisplay:10.37,2013-06-19 17:50:00,
2013-06-19 07:55:00,81.1,71.2,30.04,East,90,5.2,6.9,72,0.01,CLR,,0.01,WeatherDisplay:10.37,2013-06-19 17:55:00,
2013-06-19 08:00:00,82.0,71.7,30.04,East,90,4.6,6.9,71,0.01,CLR,,0.01,WeatherDisplay:10.37,2013-06-19 18:00:00,
2013-06-19 08:05:00,81.9,71.2,30.04,ESE,112,3.4,5.8,70,0.01,CLR,,0.01,WeatherDisplay:10.37,2013-06-19 18:05:00,
2013-06-19 08:10:00,82.0,71.2,30.04,ESE,112,4.3,4.7,70,0.01,CLR,,0.01,WeatherDisplay:10.37,2013-06-19 18:10:00,
2013-06-19 08:15:00,81.9,71.2,30.04,ESE,112,6.5,7.3,70,0.01,CLR,,0.01,WeatherDisplay:10.37,2013-06-19 18:15:00,
2013-06-19 08:20:00,81.5,70.8,30.04,ESE,112,5.2,5.8,70,0.01,CLR,,0.01,WeatherDisplay:10.37,2013-06-19 18:20:00,
2013-06-19 08:25:00,80.2,70.8,30.04,ESE,112,5.1,5.1,73,0.00,CLR,,0.01,WeatherDisplay:10.37,2013-06-19 18:25:00,
2013-06-19 08:31:00,80.1,70.7,30.04,NNW,338,5.6,10.4,73,0.00,CLR,,0.01,WeatherDisplay:10.37,2013-06-19 18:31:00,
2013-06-19 08:36:00,80.8,70.9,30.05,East,90,7.6,9.2,72,0.00,CLR,,0.01,WeatherDisplay:10.37,2013-06-19 18:36:00,
2013-06-19 08:41:00,80.8,70.9,30.05,ESE,112,3.6,5.8,72,0.00,CLR,,0.01,WeatherDisplay:10.37,2013-06-19 18:41:00,
2013-06-19 08:46:00,80.2,70.8,30.05,ESE,112,4.4,5.8,73,0.00,CLR,,0.01,WeatherDisplay:10.37,2013-06-19 18:46:00,
2013-06-19 08:51:00,80.1,70.7,30.04,ESE,112,5.9,8.1,73,0.00,CLR,,0.01,WeatherDisplay:10.37,2013-06-19 18:51:00,
2013-06-19 08:56:00,79.5,70.1,30.04,North,360,6.6,8.1,73,0.00,CLR,,0.01,WeatherDisplay:10.37,2013-06-19 18:56:00,
2013-06-19 09:01:00,81.1,71.6,30.04,ENE,68,5.2,6.8,73,0.00,CLR,,0.01,WeatherDisplay:10.37,2013-06-19 19:01:00,
2013-06-19 09:06:00,80.8,70.1,30.04,NE,45,5.3,6.9,70,0.00,CLR,,0.01,WeatherDisplay:10.37,2013-06-19 19:06:00,
2013-06-19 09:11:00,81.3,70.2,30.04,NNW,338,6.5,7.3,69,0.00,CLR,,0.01,WeatherDisplay:10.37,2013-06-19 19:11:00,
2013-06-19 09:16:00,81.0,70.7,30.04,ESE,112,4.5,6.9,71,0.00,CLR,,0.01,WeatherDisplay:10.37,2013-06-19 19:16:00,
2013-06-19 09:21:00,81.5,69.9,30.04,NE,45,4.1,9.2,68,0.00,CLR,,0.01,WeatherDisplay:10.37,2013-06-19 19:21:00,
2013-06-19 09:26:00,82.0,70.8,30.04,SE,135,6.7,9.2,69,0.00,CLR,,0.01,WeatherDisplay:10.37,2013-06-19 19:26:00,
2013-06-19 09:31:00,81.7,70.5,30.04,East,90,6.6,6.9,69,0.00,CLR,,0.01,WeatherDisplay:10.37,2013-06-19 19:31:00,
2013-06-19 09:36:00,80.1,70.3,30.04,ENE,68,7.2,7.3,72,0.00,CLR,,0.01,WeatherDisplay:10.37,2013-06-19 19:36:00,
2013-06-19 09:42:00,80.1,71.1,30.04,ESE,112,3.7,8.1,74,0.00,CLR,,0.01,WeatherDisplay:10.37,2013-06-19 19:42:00,
2013-06-19 09:47:00,80.1,70.7,30.04,NNE,22,5.4,5.8,73,0.00,CLR,,0.01,WeatherDisplay:10.37,2013-06-19 19:47:00,
2013-06-19 09:52:00,78.1,69.1,30.04,SSE,158,7.2,10.4,74,0.00,CLR,,0.01,WeatherDisplay:10.37,2013-06-19 19:52:00,
2013-06-19 09:57:00,81.0,71.5,30.04,East,90,9.3,10.4,73,0.00,CLR,,0.01,WeatherDisplay:10.37,2013-06-19 19:57:00,
2013-06-19 10:02:00,81.3,71.8,30.04,NNE,22,5.7,8.1,73,0.00,CLR,,0.01,WeatherDisplay:10.37,2013-06-19 20:02:00,
2013-06-19 10:07:00,80.8,70.9,30.04,NNW,338,8.3,11.5,72,0.00,CLR,,0.01,WeatherDisplay:10.37,2013-06-19 20:07:00,
2013-06-19 10:12:00,82.0,71.7,30.04,SE,135,2.9,5.8,71,0.00,CLR,,0.01,WeatherDisplay:10.37,2013-06-19 20:12:00,
2013-06-19 10:17:00,82.4,70.8,30.04,ESE,112,9.7,12.7,68,0.00,CLR,,0.01,WeatherDisplay:10.37,2013-06-19 20:17:00,
2013-06-19 10:22:00,82.0,71.2,30.04,NE,45,7.5,10.4,70,0.00,CLR,,0.01,WeatherDisplay:10.37,2013-06-19 20:22:00,
2013-06-19 10:27:00,82.4,72.0,30.04,East,90,6.5,9.2,71,0.00,CLR,,0.01,WeatherDisplay:10.37,2013-06-19 20:27:00,
2013-06-19 10:32:00,81.5,70.3,30.04,ENE,68,5.6,10.4,69,0.00,CLR,,0.01,WeatherDisplay:10.37,2013-06-19 20:32:00,
2013-06-19 10:37:00,81.0,71.1,30.04,NE,45,5.8,9.2,72,0.00,CLR,,0.01,WeatherDisplay:10.37,2013-06-19 20:37:00,
2013-06-19 10:42:00,80.6,71.1,30.04,SSW,202,6.1,10.4,73,0.00,CLR,,0.01,WeatherDisplay:10.37,2013-06-19 20:42:00,
2013-06-19 10:47:00,81.0,71.5,30.04,ESE,112,7.3,10.4,73,0.00,CLR,,0.01,WeatherDisplay:10.37,2013-06-19 20:47:00,
2013-06-19 10:52:00,81.1,70.8,30.04,East,90,9.7,10.4,71,0.00,CLR,,0.01,WeatherDisplay:10.37,2013-06-19 20:52:00,
2013-06-19 10:58:00,81.0,71.9,30.04,NNE,22,8.7,10.9,74,0.00,CLR,,0.01,WeatherDisplay:10.37,2013-06-19 20:58:00,
2013-06-19 11:03:00,81.7,71.8,30.04,SE,135,10.8,11.5,72,0.00,CLR,,0.01,WeatherDisplay:10.37,2013-06-19 21:03:00,
2013-06-19 11:08:00,80.2,70.4,30.04,NE,45,7.5,12.7,72,0.00,CLR,,0.01,WeatherDisplay:10.37,2013-06-19 21:08:00,
2013-06-19 11:13:00,81.7,71.8,30.04,ENE,68,7.0,9.2,72,0.00,CLR,,0.01,WeatherDisplay:10.37,2013-06-19 21:13:00,
2013-06-19 11:18:00,82.6,71.4,30.04,ESE,112,9.4,10.4,69,0.00,CLR,,0.01,WeatherDisplay:10.37,2013-06-19 21:18:00,
2013-06-19 11:23:00,81.9,71.2,30.04,SSE,158,5.2,6.8,70,0.00,CLR,,0.01,WeatherDisplay:10.37,2013-06-19 21:23:00,
2013-06-19 11:28:00,81.7,70.5,30.04,WSW,248,5.8,9.2,69,0.00,CLR,,0.01,WeatherDisplay:10.37,2013-06-19 21:28:00,
2013-06-19 11:33:00,81.7,70.5,30.04,East,90,7.2,8.1,69,0.00,CLR,,0.01,WeatherDisplay:10.37,2013-06-19 21:33:00,
2013-06-19 11:38:00,82.6,71.8,30.04,ESE,112,5.4,6.8,70,0.00,CLR,,0.01,WeatherDisplay:10.37,2013-06-19 21:38:00,
2013-06-19 11:43:00,82.2,71.9,30.04,East,90,9.1,11.4,71,0.00,CLR,,0.01,WeatherDisplay:10.37,2013-06-19 21:43:00,
2013-06-19 11:48:00,82.6,71.8,30.04,ESE,112,7.9,10.4,70,0.00,CLR,,0.01,WeatherDisplay:10.37,2013-06-19 21:48:00,
2013-06-19 11:53:00,82.4,70.8,30.04,ESE,112,9.8,13.8,68,0.00,CLR,,0.01,WeatherDisplay:10.37,2013-06-19 21:53:00,
2013-06-19 11:58:00,82.4,70.8,30.03,SE,135,9.7,10.4,68,0.00,CLR,,0.01,WeatherDisplay:10.37,2013-06-19 21:58:00,
2013-06-19 12:03:00,83.7,72.0,30.03,ESE,112,11.1,13.5,68,0.00,CLR,,0.01,WeatherDisplay:10.37,2013-06-19 22:03:00,
2013-06-19 12:09:00,82.6,71.0,30.03,East,90,7.3,9.2,68,0.00,CLR,,0.01,WeatherDisplay:10.37,2013-06-19 22:09:00,
2013-06-19 12:14:00,81.5,71.2,30.03,SSE,158,6.7,9.2,71,0.00,CLR,,0.01,WeatherDisplay:10.37,2013-06-19 22:14:00,
2013-06-19 12:19:00,81.0,70.3,30.03,ESE,112,6.4,8.1,70,0.00,CLR,,0.01,WeatherDisplay:10.37,2013-06-19 22:19:00,
2013-06-19 12:24:00,80.8,70.9,30.03,ESE,112,7.7,8.3,72,0.00,CLR,,0.01,WeatherDisplay:10.37,2013-06-19 22:24:00,
2013-06-19 12:29:00,80.4,70.5,30.03,ENE,68,5.5,6.9,72,0.00,CLR,,0.01,WeatherDisplay:10.37,2013-06-19 22:29:00,
2013-06-19 12:34:00,81.3,71.4,30.03,ESE,112,7.0,10.4,72,0.00,CLR,,0.01,WeatherDisplay:10.37,2013-06-19 22:34:00,
2013-06-19 12:39:00,81.0,70.7,30.03,ESE,112,9.7,11.5,71,0.00,CLR,,0.01,WeatherDisplay:10.37,2013-06-19 22:39:00,
2013-06-19 12:44:00,81.3,70.6,30.03,ESE,112,10.4,12.7,70,0.00,CLR,,0.01,WeatherDisplay:10.37,2013-06-19 22:44:00,
2013-06-19 12:49:00,81.1,69.5,30.02,NE,45,7.8,10.9,68,0.00,CLR,,0.01,WeatherDisplay:10.37,2013-06-19 22:49:00,
2013-06-19 12:54:00,81.9,70.7,30.02,SSW,202,6.8,8.1,69,0.00,CLR,,0.01,WeatherDisplay:10.37,2013-06-19 22:54:00,
2013-06-19 12:59:00,82.6,71.4,30.02,East,90,10.3,12.4,69,0.00,CLR,,0.01,WeatherDisplay:10.37,2013-06-19 22:59:00,
2013-06-19 13:04:00,81.1,70.0,30.02,ENE,68,10.6,11.5,69,0.00,CLR,,0.01,WeatherDisplay:10.37,2013-06-19 23:04:00,
2013-06-19 13:09:00,81.1,70.4,30.02,NE,45,8.2,8.8,70,0.00,CLR,,0.01,WeatherDisplay:10.37,2013-06-19 23:09:00,
2013-06-19 13:14:00,80.8,70.5,30.03,ESE,112,12.9,13.0,71,0.00,CLR,,0.01,WeatherDisplay:10.37,2013-06-19 23:14:00,
2013-06-19 13:20:00,82.4,71.6,30.03,East,90,8.5,9.2,70,0.00,CLR,,0.01,WeatherDisplay:10.37,2013-06-19 23:20:00,
2013-06-19 13:25:00,82.8,70.7,30.03,ESE,105,8.0,12.0,67,0.00,CLR,,0.01,WeatherDisplay:10.37,2013-06-19 23:25:00,
2013-06-19 13:30:00,82.8,70.3,30.03,ESE,112,9.9,11.5,66,0.00,CLR,,0.01,WeatherDisplay:10.37,2013-06-19 23:30:00,
2013-06-19 13:35:00,82.8,70.3,30.02,ENE,68,8.2,11.9,66,0.00,CLR,,0.01,WeatherDisplay:10.37,2013-06-19 23:35:00,
2013-06-19 13:40:00,81.7,70.5,30.02,SE,135,9.4,10.4,69,0.00,CLR,,0.01,WeatherDisplay:10.37,2013-06-19 23:40:00,
2013-06-19 13:45:00,81.5,70.3,30.02,ESE,112,6.3,6.3,69,0.00,CLR,,0.01,WeatherDisplay:10.37,2013-06-19 23:45:00,
2013-06-19 13:50:00,81.1,70.8,30.02,ESE,112,7.6,9.2,71,0.00,CLR,,0.01,WeatherDisplay:10.37,2013-06-19 23:50:00,
2013-06-19 13:55:00,82.6,71.4,30.02,East,90,8.5,12.7,69,0.00,CLR,,0.01,WeatherDisplay:10.37,2013-06-19 23:55:00,
2013-06-19 14:00:00,82.2,70.6,30.02,East,90,7.6,10.4,68,0.00,CLR,,0.01,WeatherDisplay:10.37,2013-06-20 00:00:00,
2013-06-19 14:05:00,82.0,70.0,30.02,South,180,8.4,10.4,67,0.00,CLR,,0.01,WeatherDisplay:10.37,2013-06-20 00:05:00,
2013-06-19 14:10:00,82.2,70.6,30.02,East,90,6.0,6.9,68,0.00,CLR,,0.01,WeatherDisplay:10.37,2013-06-20 00:10:00,
2013-06-19 14:15:00,81.5,70.8,30.02,North,360,6.8,9.2,70,0.00,CLR,,0.01,WeatherDisplay:10.37,2013-06-20 00:15:00,
2013-06-19 14:20:00,81.1,70.0,30.02,ENE,68,6.8,6.8,69,0.00,CLR,,0.01,WeatherDisplay:10.37,2013-06-20 00:20:00,
2013-06-19 14:25:00,80.4,70.1,30.02,SE,135,7.0,9.2,71,0.00,CLR,,0.01,WeatherDisplay:10.37,2013-06-20 00:25:00,
2013-06-19 14:31:00,81.3,71.0,30.02,East,90,4.0,7.8,71,0.00,CLR,,0.01,WeatherDisplay:10.37,2013-06-20 00:31:00,
2013-06-19 14:36:00,81.0,69.9,30.02,East,90,8.1,12.4,69,0.00,CLR,,0.01,WeatherDisplay:10.37,2013-06-20 00:36:00,
2013-06-19 14:41:00,81.0,69.9,30.02,East,90,12.4,12.7,69,0.00,CLR,,0.01,WeatherDisplay:10.37,2013-06-20 00:41:00,
2013-06-19 14:46:00,81.0,70.7,30.02,NE,45,3.5,4.6,71,0.00,CLR,,0.01,WeatherDisplay:10.37,2013-06-20 00:46:00,
2013-06-19 14:51:00,80.6,69.9,30.01,NE,45,6.7,6.9,70,0.00,CLR,,0.01,WeatherDisplay:10.37,2013-06-20 00:51:00,
2013-06-19 14:56:00,81.1,70.4,30.01,East,90,7.6,11.5,70,0.00,CLR,,0.01,WeatherDisplay:10.37,2013-06-20 00:56:00,
2013-06-19 15:01:00,80.8,69.7,30.02,East,90,5.9,8.8,69,0.00,CLR,,0.01,WeatherDisplay:10.37,2013-06-20 01:01:00,
2013-06-19 15:06:00,80.2,69.5,30.02,ESE,112,12.5,15.0,70,0.00,CLR,,0.01,WeatherDisplay:10.37,2013-06-20 01:06:00,
2013-06-19 15:11:00,80.6,69.5,30.01,ESE,112,6.0,10.4,69,0.00,CLR,,0.01,WeatherDisplay:10.37,2013-06-20 01:11:00,
2013-06-19 15:16:00,79.0,68.8,30.01,NNW,338,3.9,8.1,71,0.00,CLR,,0.01,WeatherDisplay:10.37,2013-06-20 01:16:00,
2013-06-19 15:21:00,80.8,70.5,30.01,NNE,22,6.3,8.3,71,0.00,CLR,,0.01,WeatherDisplay:10.37,2013-06-20 01:21:00,
2013-06-19 15:26:00,81.0,70.3,30.01,East,90,6.8,11.5,70,0.00,CLR,,0.01,WeatherDisplay:10.37,2013-06-20 01:26:00,
2013-06-19 15:31:00,80.8,70.5,30.01,ESE,112,5.4,9.2,71,0.00,CLR,,0.01,WeatherDisplay:10.37,2013-06-20 01:31:00,
2013-06-19 15:36:00,79.7,69.5,30.01,WNW,292,6.0,8.3,71,0.00,CLR,,0.01,WeatherDisplay:10.37,2013-06-20 01:36:00,
2013-06-19 15:41:00,81.0,70.7,30.01,NW,315,5.4,6.9,71,0.00,CLR,,0.01,WeatherDisplay:10.37,2013-06-20 01:41:00,
2013-06-19 15:47:00,79.9,69.7,30.01,West,270,4.5,5.8,71,0.00,CLR,,0.01,WeatherDisplay:10.37,2013-06-20 01:47:00,
2013-06-19 15:52:00,79.2,69.0,30.01,NNE,22,6.2,6.9,71,0.00,CLR,,0.01,WeatherDisplay:10.37,2013-06-20 01:52:00,
2013-06-19 15:57:00,79.9,69.2,30.01,NE,45,4.7,5.8,70,0.00,CLR,,0.01,WeatherDisplay:10.37,2013-06-20 01:57:00,
2013-06-19 16:02:00,80.2,69.1,30.01,East,90,9.8,12.4,69,0.00,CLR,,0.01,WeatherDisplay:10.37,2013-06-20 02:02:00,
2013-06-19 16:07:00,80.8,69.7,30.01,East,90,9.3,10.4,69,0.00,CLR,,0.01,WeatherDisplay:10.37,2013-06-20 02:07:00,
2013-06-19 16:12:00,80.1,69.8,30.01,NE,45,7.2,8.1,71,0.00,CLR,,0.01,WeatherDisplay:10.37,2013-06-20 02:12:00,
2013-06-19 16:17:00,81.0,70.7,30.01,East,90,4.3,10.9,71,0.00,CLR,,0.01,WeatherDisplay:10.37,2013-06-20 02:17:00,
2013-06-19 16:22:00,81.1,70.0,30.01,ESE,112,7.8,10.4,69,0.00,CLR,,0.01,WeatherDisplay:10.37,2013-06-20 02:22:00,
2013-06-19 16:27:00,80.4,68.9,30.01,ESE,112,9.3,10.4,68,0.00,CLR,,0.01,WeatherDisplay:10.37,2013-06-20 02:27:00,
2013-06-19 16:32:00,81.0,70.3,30.01,NNW,338,11.6,12.7,70,0.00,CLR,,0.01,WeatherDisplay:10.37,2013-06-20 02:32:00,
2013-06-19 16:37:00,81.3,71.0,30.00,ESE,112,7.7,11.5,71,0.00,CLR,,0.01,WeatherDisplay:10.37,2013-06-20 02:37:00,
2013-06-19 16:42:00,80.6,69.5,30.00,NE,45,7.8,14.5,69,0.00,CLR,,0.01,WeatherDisplay:10.37,2013-06-20 02:42:00,
2013-06-19 16:47:00,79.9,70.1,30.00,ESE,112,5.4,10.4,72,0.00,CLR,,0.01,WeatherDisplay:10.37,2013-06-20 02:47:00,
2013-06-19 16:52:00,79.5,69.7,30.00,East,90,5.8,10.4,72,0.00,CLR,,0.01,WeatherDisplay:10.37,2013-06-20 02:52:00,
2013-06-19 16:58:00,79.2,69.4,30.00,East,90,5.3,10.4,72,0.00,CLR,,0.01,WeatherDisplay:10.37,2013-06-20 02:58:00,
2013-06-19 17:03:00,78.6,69.6,30.00,East,90,8.7,10.4,74,0.00,CLR,,0.01,WeatherDisplay:10.37,2013-06-20 03:03:00,
2013-06-19 17:08:00,79.2,70.2,30.00,East,90,8.0,13.8,74,0.00,CLR,,0.01,WeatherDisplay:10.37,2013-06-20 03:08:00,
2013-06-19 17:13:00,78.6,69.6,30.00,NE,45,8.5,10.4,74,0.00,CLR,,0.01,WeatherDisplay:10.37,2013-06-20 03:13:00,
2013-06-19 17:18:00,78.4,69.4,30.00,NNW,338,5.8,8.1,74,0.00,CLR,,0.01,WeatherDisplay:10.37,2013-06-20 03:18:00,
2013-06-19 17:23:00,78.3,69.7,30.00,East,90,6.9,7.3,75,0.00,CLR,,0.01,WeatherDisplay:10.37,2013-06-20 03:23:00,
2013-06-19 17:28:00,78.3,69.7,30.00,NNE,22,5.4,6.9,75,0.00,CLR,,0.01,WeatherDisplay:10.37,2013-06-20 03:28:00,
2013-06-19 17:33:00,78.3,69.7,30.00,NNE,22,5.7,6.8,75,0.00,CLR,,0.01,WeatherDisplay:10.37,2013-06-20 03:33:00,
2013-06-19 17:38:00,78.1,69.5,30.00,WNW,292,5.5,9.2,75,0.00,CLR,,0.01,WeatherDisplay:10.37,2013-06-20 03:38:00,
2013-06-19 17:43:00,77.7,69.5,30.00,ENE,68,7.6,9.2,76,0.00,CLR,,0.01,WeatherDisplay:10.37,2013-06-20 03:43:00,
2013-06-19 17:48:00,78.3,70.1,30.00,NE,45,4.4,5.8,76,0.00,CLR,,0.01,WeatherDisplay:10.37,2013-06-20 03:48:00,
2013-06-19 17:53:00,77.5,69.3,30.00,NNE,22,7.5,8.8,76,0.00,CLR,,0.01,WeatherDisplay:10.37,2013-06-20 03:53:00,
2013-06-19 17:58:00,77.9,69.7,30.01,East,90,6.4,6.9,76,0.00,CLR,,0.01,WeatherDisplay:10.37,2013-06-20 03:58:00,
2013-06-19 18:01:00,77.9,69.7,30.01,NE,45,3.5,3.7,76,0.00,CLR,,0.01,WeatherDisplay:10.37,2013-06-20 04:01:00,
2013-06-19 18:03:00,77.9,70.1,30.01,ENE,68,6.5,8.1,77,0.00,CLR,,0.01,WeatherDisplay:10.37,2013-06-20 04:03:00,
2013-06-19 18:08:00,77.9,70.1,30.01,NE,45,8.1,10.4,77,0.00,CLR,,0.01,WeatherDisplay:10.37,2013-06-20 04:08:00,
2013-06-19 18:13:00,77.7,69.9,30.01,North,360,5.2,8.3,77,0.00,CLR,,0.01,WeatherDisplay:10.37,2013-06-20 04:13:00,
2013-06-19 18:18:00,77.7,69.9,30.01,East,90,6.3,8.1,77,0.00,CLR,,0.01,WeatherDisplay:10.37,2013-06-20 04:18:00,
2013-06-19 18:23:00,77.2,69.0,30.01,NE,45,5.9,8.1,76,0.00,CLR,,0.01,WeatherDisplay:10.37,2013-06-20 04:23:00,
2013-06-19 18:28:00,77.5,69.3,30.01,NNE,22,3.3,4.6,76,0.00,CLR,,0.01,WeatherDisplay:10.37,2013-06-20 04:28:00,
2013-06-19 18:33:00,77.4,69.2,30.01,ESE,112,3.2,3.5,76,0.00,CLR,,0.01,WeatherDisplay:10.37,2013-06-20 04:33:00,
2013-06-19 18:38:00,77.2,69.4,30.01,ESE,112,5.8,8.1,77,0.00,CLR,,0.01,WeatherDisplay:10.37,2013-06-20 04:38:00,
2013-06-19 18:43:00,77.0,69.2,30.01,NE,45,4.1,6.9,77,0.00,CLR,,0.01,WeatherDisplay:10.37,2013-06-20 04:43:00,
2013-06-19 18:48:00,77.0,69.2,30.01,NE,45,6.5,6.9,77,0.00,CLR,,0.01,WeatherDisplay:10.37,2013-06-20 04:48:00,
2013-06-19 18:53:00,77.0,69.6,30.01,ESE,112,5.1,8.1,78,0.00,CLR,,0.01,WeatherDisplay:10.37,2013-06-20 04:53:00,
2013-06-19 18:58:00,77.0,69.6,30.01,East,90,5.0,5.8,78,0.00,CLR,,0.01,WeatherDisplay:10.37,2013-06-20 04:58:00,
2013-06-19 19:03:00,77.0,69.6,30.01,ENE,68,5.5,8.3,78,0.00,CLR,,0.01,WeatherDisplay:10.37,2013-06-20 05:03:00,
2013-06-19 19:08:00,76.6,68.8,30.01,ESE,112,5.8,6.3,77,0.00,CLR,,0.01,WeatherDisplay:10.37,2013-06-20 05:08:00,
2013-06-19 19:13:00,76.6,69.2,30.02,NE,45,4.9,8.1,78,0.00,CLR,,0.01,WeatherDisplay:10.37,2013-06-20 05:13:00,
2013-06-19 19:18:00,76.5,69.1,30.02,NE,45,4.9,9.2,78,0.00,CLR,,0.01,WeatherDisplay:10.37,2013-06-20 05:18:00,
2013-06-19 19:24:00,76.5,69.5,30.03,North,360,5.1,5.8,79,0.00,CLR,,0.01,WeatherDisplay:10.37,2013-06-20 05:24:00,
2013-06-19 19:29:00,76.5,69.5,30.03,East,90,4.9,5.8,79,0.00,CLR,,0.01,WeatherDisplay:10.37,2013-06-20 05:29:00,
2013-06-19 19:34:00,76.5,69.5,30.03,SE,135,7.0,9.2,79,0.00,CLR,,0.01,WeatherDisplay:10.37,2013-06-20 05:34:00,
2013-06-19 19:39:00,76.3,69.7,30.03,East,90,3.2,3.7,80,0.00,CLR,,0.01,WeatherDisplay:10.37,2013-06-20 05:39:00,
2013-06-19 19:44:00,76.3,69.7,30.03,ENE,68,5.1,8.1,80,0.00,CLR,,0.01,WeatherDisplay:10.37,2013-06-20 05:44:00,
2013-06-19 19:49:00,76.1,69.5,30.03,ENE,68,3.9,5.8,80,0.00,CLR,,0.01,WeatherDisplay:10.37,2013-06-20 05:49:00,
2013-06-19 19:54:00,76.1,69.5,30.03,ENE,68,2.0,3.5,80,0.00,CLR,,0.01,WeatherDisplay:10.37,2013-06-20 05:54:00,
2013-06-19 19:59:00,75.9,69.3,30.03,NE,45,4.8,6.9,80,0.00,CLR,,0.01,WeatherDisplay:10.37,2013-06-20 05:59:00,
2013-06-19 20:04:00,75.9,69.3,30.03,NW,315,4.5,6.9,80,0.00,CLR,,0.01,WeatherDisplay:10.37,2013-06-20 06:04:00,
2013-06-19 20:09:00,75.9,69.3,30.03,ESE,112,5.4,6.9,80,0.00,CLR,,0.01,WeatherDisplay:10.37,2013-06-20 06:09:00,
2013-06-19 20:14:00,75.7,69.1,30.03,WNW,292,3.6,4.6,80,0.00,CLR,,0.01,WeatherDisplay:10.37,2013-06-20 06:14:00,
2013-06-19 20:19:00,75.9,69.3,30.03,East,90,4.4,5.8,80,0.00,CLR,,0.01,WeatherDisplay:10.37,2013-06-20 06:19:00,
2013-06-19 20:24:00,75.7,69.1,30.04,North,360,4.2,4.6,80,0.00,CLR,,0.01,WeatherDisplay:10.37,2013-06-20 06:24:00,
2013-06-19 20:29:00,75.9,69.3,30.04,East,90,4.3,5.8,80,0.00,CLR,,0.01,WeatherDisplay:10.37,2013-06-20 06:29:00,
2013-06-19 20:34:00,75.9,68.9,30.04,NE,45,3.6,5.3,79,0.00,CLR,,0.01,WeatherDisplay:10.37,2013-06-20 06:34:00,
2013-06-19 20:40:00,75.9,68.9,30.04,NE,50,6.0,9.0,79,0.00,CLR,,0.01,WeatherDisplay:10.37,2013-06-20 06:40:00,
2013-06-19 20:45:00,75.9,68.9,30.04,ENE,68,5.2,7.3,79,0.00,CLR,,0.01,WeatherDisplay:10.37,2013-06-20 06:45:00,
2013-06-19 20:50:00,75.9,68.5,30.05,NE,45,3.3,4.6,78,0.00,CLR,,0.01,WeatherDisplay:10.37,2013-06-20 06:50:00,
2013-06-19 20:55:00,75.9,68.5,30.05,North,360,4.9,5.8,78,0.00,CLR,,0.01,WeatherDisplay:10.37,2013-06-20 06:55:00,
2013-06-19 21:00:00,75.9,68.5,30.04,WNW,292,5.2,8.1,78,0.00,CLR,,0.01,WeatherDisplay:10.37,2013-06-20 07:00:00,
2013-06-19 21:05:00,75.9,68.5,30.04,NNW,338,3.5,5.8,78,0.00,CLR,,0.01,WeatherDisplay:10.37,2013-06-20 07:05:00,
2013-06-19 21:10:00,75.9,68.5,30.04,East,90,4.6,5.8,78,0.00,CLR,,0.01,WeatherDisplay:10.37,2013-06-20 07:10:00,
2013-06-19 21:15:00,75.9,68.5,30.05,NNE,22,4.3,5.8,78,0.00,CLR,,0.01,WeatherDisplay:10.37,2013-06-20 07:15:00,
2013-06-19 21:20:00,75.9,68.5,30.05,ENE,68,5.1,5.1,78,0.00,CLR,,0.01,WeatherDisplay:10.37,2013-06-20 07:20:00,
2013-06-19 21:25:00,75.9,68.9,30.05,East,90,3.5,5.8,79,0.00,CLR,,0.01,WeatherDisplay:10.37,2013-06-20 07:25:00,
2013-06-19 21:30:00,75.9,68.9,30.05,NNE,22,4.7,6.8,79,0.00,CLR,,0.01,WeatherDisplay:10.37,2013-06-20 07:30:00,
2013-06-19 21:35:00,75.9,68.9,30.05,ENE,68,5.6,6.9,79,0.00,CLR,,0.01,WeatherDisplay:10.37,2013-06-20 07:35:00,
2013-06-19 21:40:00,75.9,68.9,30.05,ESE,112,2.1,3.5,79,0.00,CLR,,0.01,WeatherDisplay:10.37,2013-06-20 07:40:00,
2013-06-19 21:45:00,75.9,68.9,30.05,ENE,68,6.1,6.8,79,0.00,CLR,,0.01,WeatherDisplay:10.37,2013-06-20 07:45:00,
2013-06-19 21:51:00,75.9,68.9,30.05,NNE,22,6.0,6.3,79,0.00,CLR,,0.01,WeatherDisplay:10.37,2013-06-20 07:51:00,
2013-06-19 21:56:00,75.9,68.9,30.05,NE,45,5.2,5.8,79,0.00,CLR,,0.01,WeatherDisplay:10.37,2013-06-20 07:56:00,
2013-06-19 22:01:00,75.9,69.3,30.05,East,90,5.7,8.1,80,0.00,CLR,,0.01,WeatherDisplay:10.37,2013-06-20 08:01:00,
2013-06-19 22:06:00,75.9,69.3,30.05,East,90,5.1,6.9,80,0.00,CLR,,0.01,WeatherDisplay:10.37,2013-06-20 08:06:00,
2013-06-19 22:11:00,75.9,69.3,30.06,ESE,112,3.3,4.6,80,0.00,CLR,,0.01,WeatherDisplay:10.37,2013-06-20 08:11:00,
2013-06-19 22:16:00,75.9,69.3,30.06,NNW,338,2.0,3.2,80,0.00,CLR,,0.01,WeatherDisplay:10.37,2013-06-20 08:16:00,
2013-06-19 22:21:00,75.9,69.3,30.06,West,270,3.4,5.3,80,0.00,CLR,,0.01,WeatherDisplay:10.37,2013-06-20 08:21:00,
2013-06-19 22:26:00,75.9,69.3,30.06,East,90,3.6,4.6,80,0.00,CLR,,0.01,WeatherDisplay:10.37,2013-06-20 08:26:00,
2013-06-19 22:31:00,75.9,69.3,30.06,ENE,68,2.7,4.6,80,0.00,CLR,,0.01,WeatherDisplay:10.37,2013-06-20 08:31:00,
2013-06-19 22:36:00,75.9,69.3,30.06,East,90,5.3,5.8,80,0.00,CLR,,0.01,WeatherDisplay:10.37,2013-06-20 08:36:00,
2013-06-19 22:41:00,75.9,69.3,30.06,East,90,7.1,8.1,80,0.00,CLR,,0.01,WeatherDisplay:10.37,2013-06-20 08:41:00,
2013-06-19 22:46:00,75.9,69.3,30.06,East,90,2.7,4.2,80,0.00,CLR,,0.01,WeatherDisplay:10.37,2013-06-20 08:46:00,
2013-06-19 22:51:00,75.9,69.3,30.06,NE,45,4.4,5.8,80,0.00,CLR,,0.01,WeatherDisplay:10.37,2013-06-20 08:51:00,
2013-06-19 22:56:00,75.9,69.3,30.06,ENE,68,4.5,6.9,80,0.00,CLR,,0.01,WeatherDisplay:10.37,2013-06-20 08:56:00,
2013-06-19 23:02:00,75.9,69.3,30.05,East,90,2.5,4.7,80,0.00,CLR,,0.01,WeatherDisplay:10.37,2013-06-20 09:02:00,
2013-06-19 23:07:00,75.9,69.6,30.05,ESE,112,1.1,3.7,81,0.00,CLR,,0.01,WeatherDisplay:10.37,2013-06-20 09:07:00,
2013-06-19 23:12:00,75.6,69.4,30.05,NE,45,3.0,3.7,81,0.00,CLR,,0.01,WeatherDisplay:10.37,2013-06-20 09:12:00,
2013-06-19 23:17:00,75.7,69.1,30.05,NNW,338,2.7,4.6,80,0.00,CLR,,0.01,WeatherDisplay:10.37,2013-06-20 09:17:00,
2013-06-19 23:22:00,75.7,69.1,30.05,ENE,68,2.0,2.7,80,0.00,CLR,,0.01,WeatherDisplay:10.37,2013-06-20 09:22:00,
2013-06-19 23:27:00,75.7,69.1,30.05,NNE,22,3.5,3.5,80,0.00,CLR,,0.01,WeatherDisplay:10.37,2013-06-20 09:27:00,
2013-06-19 23:32:00,75.6,69.0,30.05,NNE,22,4.7,5.8,80,0.00,CLR,,0.01,WeatherDisplay:10.37,2013-06-20 09:32:00,
2013-06-19 23:37:00,75.6,69.4,30.05,NE,45,3.8,4.6,81,0.00,CLR,,0.01,WeatherDisplay:10.37,2013-06-20 09:37:00,
2013-06-19 23:42:00,75.7,69.5,30.05,ENE,68,4.4,5.8,81,0.00,CLR,,0.01,WeatherDisplay:10.37,2013-06-20 09:42:00,
2013-06-19 23:47:00,75.7,69.5,30.05,North,360,4.0,5.8,81,0.00,CLR,,0.01,WeatherDisplay:10.37,2013-06-20 09:47:00,
2013-06-19 23:52:00,75.7,69.5,30.05,NNW,338,1.7,2.3,81,0.00,CLR,,0.01,WeatherDisplay:10.37,2013-06-20 09:52:00,
2013-06-19 23:57:00,75.6,69.4,30.05,ESE,112,5.5,6.3,81,0.00,CLR,,0.01,WeatherDisplay:10.37,2013-06-20 09:57:00,